Cumberland College, KY

01:53 PM EDT on Oktober 20, 2014 (GMT -0400)
KYTC_RWIS I-75 NB @ KY Welcome Center | Change Station
CLOSE
Current Station
Personal Weather Stations
Location: Jellico, TN
Elevation: 997 ft
Nearby Weather Stations

Elev 997 ft 36.62 °N, 84.11 °W | Updated 38 minutes ago

Växlande molnighet
Växlande molnighet
65 °F
Feels Like 65 °F
N
3
Vind Växlande Vind from V/SV
Gusts 0.0 miles/tim

Idag
High -- | Low -- °F
--% Chance of Precip.
Yesterday
High -- | Low -- °F
Precip. -- tum
7:48 AM 6:53 PM
Fjärde kvarteret, 10% visible
Lufttryck 30.05 tum
Sikt 10.0 miles
Molnigt Mestadels molnigt 11000 ft
Daggpunkt 47 °F
Luftfuktighet 54%
Rainfall -999.00 tum
Snow Depth Not available.
UV 3 out of 12
Pollen 1.60 out of 12
Air Quality Not available.
Flu Activity Sporadic
METAR KLOZ 201653Z AUTO 28005KT 10SM BKN110 16/08 A3005 RMK AO2 SLP175 T01610083

More Conditions Fewer Conditions

Lufttryck 30.05 tum
Sikt 10.0 miles
Molnigt Mestadels molnigt 11000 ft
Daggpunkt 47 °F
Luftfuktighet 54%
Rainfall -999.00 tum
Snow Depth Not available.
UV 3 out of 12
Pollen 1.60 out of 12
Air Quality Not available.
Flu Activity Sporadic
METAR KLOZ 201653Z AUTO 28005KT 10SM BKN110 16/08 A3005 RMK AO2 SLP175 T01610083

More Conditions Fewer Conditions

10-Day Weather Forecast

Almanac

Astronomi

Oct. 20, 2014 Rise Set
Actual Time 7:48 AM EDT 6:53 PM EDT
Civil Twilight 7:22 AM EDT 7:19 PM EDT
Nautical Twilight 6:52 AM EDT 7:49 PM EDT
Astronomical Twilight 6:22 AM EDT 8:19 PM EDT
Månen 4:40 AM EDT 5:11 PM EDT
Length Of Visible Light 11h 57m
Dagens längd
11h 04m
Fjärde kvarteret, 10% of the Moon is Illuminated
Idag
Fjärde kvarteret
Oct 23
New
Oct 30
Första kvarteret
Nov 6
Fullmåne
Nov 14
Sista kvarteret

Today's Extremes

State Highs State Lows

Community

WunderPhotos

Upload Photos

1,763,446 photos uploaded!

WunderBlogs® & News

Nearby

Snödjup

Station Depth Elevation
No new snow has been reported.

Earthquake Activity

Stad Distance Mag. Time & Date
No recent earthquake activity has been reported nearby.
Minimum magnitude displayed is 2.5.

Coastal Water Temperatures

Plats Temperatur
No Stations Reporting

Nearby Weather Stations